createdAt,value
2024-05-09T00:01:03.579Z,6.43
2024-05-09T00:03:57.531Z,11.13
2024-05-09T00:06:44.785Z,9.45
2024-05-09T00:09:38.540Z,13.90
2024-05-09T00:12:25.939Z,6.35
2024-05-09T00:15:19.577Z,12.85
2024-05-09T00:18:07.895Z,8.10
2024-05-09T00:23:56.555Z,10.15
2024-05-09T00:26:44.672Z,10.05
2024-05-09T00:29:38.660Z,9.07
2024-05-09T00:32:26.395Z,10.98
2024-05-09T00:35:20.538Z,9.03
2024-05-09T00:38:14.782Z,8.45
2024-05-09T00:41:02.234Z,13.82
2024-05-09T00:43:55.588Z,13.90
2024-05-09T00:46:43.032Z,8.50
2024-05-09T00:49:37.589Z,13.10
2024-05-09T00:52:25.609Z,7.60
2024-05-09T00:55:26.521Z,8.97
2024-05-09T00:58:14.269Z,9.73
2024-05-09T01:01:14.560Z,21.17
2024-05-09T01:04:08.694Z,9.88
2024-05-09T01:07:02.672Z,13.32
2024-05-09T01:09:49.900Z,6.63
2024-05-09T01:12:43.560Z,11.40
2024-05-09T01:15:30.877Z,9.65
2024-05-09T01:18:25.912Z,12.93
2024-05-09T01:21:13.385Z,13.93
2024-05-09T01:24:07.523Z,12.80
2024-05-09T01:26:54.874Z,7.82
2024-05-09T01:29:48.556Z,11.77
2024-05-09T01:32:36.021Z,8.07
2024-05-09T01:35:29.615Z,13.10
2024-05-09T01:38:17.083Z,10.57
2024-05-09T01:41:11.589Z,9.82
2024-05-09T01:43:58.954Z,7.18
2024-05-09T01:46:52.566Z,5.03
2024-05-09T01:49:40.035Z,12.20
2024-05-09T01:52:33.560Z,9.35
2024-05-09T01:55:27.676Z,8.25
2024-05-09T01:58:21.547Z,11.38
2024-05-09T02:01:22.568Z,12.48
2024-05-09T02:04:09.917Z,9.05
2024-05-09T02:07:09.545Z,9.82
2024-05-09T02:13:02.566Z,11.48
2024-05-09T02:15:49.763Z,17.10
2024-05-09T02:18:43.693Z,8.75
2024-05-09T02:21:31.037Z,10.43
2024-05-09T02:24:24.621Z,7.93
2024-05-09T02:27:11.837Z,13.18
2024-05-09T02:30:18.673Z,15.80
2024-05-09T02:33:14.466Z,12.23
2024-05-09T02:39:02.853Z,13.65
2024-05-09T02:41:56.607Z,12.63
2024-05-09T02:44:43.805Z,8.20
2024-05-09T02:47:37.863Z,9.32
2024-05-09T02:50:33.667Z,10.00
2024-05-09T02:53:32.694Z,14.82
2024-05-09T02:56:20.260Z,9.35
2024-05-09T02:59:20.615Z,11.02
2024-05-09T03:02:14.746Z,12.07
2024-05-09T03:05:09.651Z,12.48
2024-05-09T03:07:57.080Z,10.40
2024-05-09T03:10:50.685Z,11.45
2024-05-09T03:13:38.099Z,13.52
2024-05-09T03:16:31.558Z,15.52
2024-05-09T03:19:25.726Z,18.25
2024-05-09T03:22:19.637Z,17.67
2024-05-09T03:25:07.161Z,19.75
2024-05-09T03:28:00.652Z,9.43
2024-05-09T03:30:54.606Z,10.98
2024-05-09T03:33:42.060Z,12.15
2024-05-09T03:36:35.559Z,9.20
2024-05-09T03:39:22.782Z,11.50
2024-05-09T03:42:16.619Z,11.45
2024-05-09T03:45:03.930Z,16.08
2024-05-09T03:47:57.846Z,18.45
2024-05-09T03:50:45.248Z,11.07
2024-05-09T03:53:39.662Z,9.98
2024-05-09T03:56:34.706Z,13.70
2024-05-09T03:59:41.607Z,17.20
2024-05-09T04:02:35.702Z,11.20
2024-05-09T04:05:23.125Z,11.13
2024-05-09T04:08:16.692Z,9.77
2024-05-09T04:11:04.330Z,13.70
2024-05-09T04:13:57.658Z,14.95
2024-05-09T04:16:45.179Z,11.13
2024-05-09T04:19:38.669Z,15.07
2024-05-09T04:22:32.673Z,11.13
2024-05-09T04:25:19.912Z,15.32
2024-05-09T04:28:13.633Z,14.20
2024-05-09T04:31:00.902Z,10.27
2024-05-09T04:33:54.765Z,11.82
2024-05-09T04:36:44.544Z,11.20
2024-05-09T04:39:38.680Z,10.15
2024-05-09T04:42:26.047Z,11.45
2024-05-09T04:45:19.780Z,18.60
2024-05-09T04:48:07.150Z,11.43
2024-05-09T04:51:00.714Z,15.85
2024-05-09T04:53:48.034Z,9.88
2024-05-09T04:56:41.762Z,14.00
2024-05-09T04:59:48.596Z,11.13
2024-05-09T05:02:42.740Z,13.13
2024-05-09T05:05:30.060Z,12.68
2024-05-09T05:08:23.694Z,16.63
2024-05-09T05:11:11.049Z,12.40
2024-05-09T05:14:04.787Z,10.40
2024-05-09T05:16:52.156Z,13.55
2024-05-09T05:19:45.964Z,9.27
2024-05-09T05:22:33.292Z,8.48
2024-05-09T05:25:27.672Z,11.82
2024-05-09T05:28:14.908Z,8.98
2024-05-09T05:31:08.672Z,12.00
2024-05-09T05:33:56.011Z,9.88
2024-05-09T05:36:49.600Z,10.35
2024-05-09T05:39:36.795Z,12.00
2024-05-09T05:42:30.636Z,9.68
2024-05-09T05:45:17.827Z,7.93
2024-05-09T05:48:11.797Z,10.93
2024-05-09T05:51:01.881Z,8.48
2024-05-09T05:53:57.640Z,8.73
2024-05-09T05:56:44.917Z,9.75
2024-05-09T05:59:45.681Z,14.05
2024-05-09T06:02:39.692Z,10.00
2024-05-09T06:05:33.794Z,8.27
2024-05-09T06:08:21.191Z,13.95
2024-05-09T06:11:14.896Z,15.95
2024-05-09T06:14:05.290Z,16.05
2024-05-09T06:16:59.670Z,14.65
2024-05-09T06:19:47.016Z,11.73
2024-05-09T06:22:40.654Z,13.15
2024-05-09T06:25:27.991Z,15.07
2024-05-09T06:28:21.679Z,11.25
2024-05-09T06:31:08.890Z,13.07
2024-05-09T06:34:03.211Z,14.35
2024-05-09T06:36:50.475Z,15.60
2024-05-09T06:39:51.613Z,15.45
2024-05-09T06:42:38.882Z,13.80
2024-05-09T06:45:32.696Z,13.98
2024-05-09T06:48:20.470Z,15.13
2024-05-09T06:51:14.872Z,13.27
2024-05-09T06:54:02.517Z,15.68
2024-05-09T06:56:56.684Z,15.95
2024-05-09T06:59:50.744Z,16.35
2024-05-09T07:02:51.730Z,18.60
2024-05-09T07:05:39.121Z,16.15
2024-05-09T07:08:34.021Z,15.85
2024-05-09T07:11:21.470Z,18.77
2024-05-09T07:14:15.755Z,15.68
2024-05-09T07:17:03.180Z,14.15
2024-05-09T07:19:56.648Z,16.90
2024-05-09T07:22:50.926Z,13.73
2024-05-09T07:25:38.201Z,16.92
2024-05-09T07:28:32.738Z,16.25
2024-05-09T07:31:19.985Z,13.32
2024-05-09T07:34:13.909Z,11.90
2024-05-09T07:37:01.426Z,20.73
2024-05-09T07:40:01.679Z,20.60
2024-05-09T07:42:48.987Z,18.33
2024-05-09T07:45:50.827Z,14.98
2024-05-09T07:53:14.301Z,15.85
2024-05-09T07:54:46.146Z,13.45
2024-05-09T07:57:39.765Z,17.30
2024-05-09T08:00:47.759Z,17.52
2024-05-09T08:03:41.937Z,14.25
2024-05-09T08:06:29.435Z,17.83
2024-05-09T08:09:23.702Z,15.63
2024-05-09T08:12:18.842Z,17.60
2024-05-09T08:15:06.088Z,14.40
2024-05-09T08:17:59.835Z,20.65
2024-05-09T08:20:47.493Z,18.25
2024-05-09T08:23:41.715Z,13.95
2024-05-09T08:26:28.930Z,22.10
2024-05-09T08:29:22.768Z,15.38
2024-05-09T08:32:10.028Z,14.27
2024-05-09T08:35:03.706Z,12.98
2024-05-09T08:37:50.945Z,12.02
2024-05-09T08:40:50.950Z,15.32
2024-05-09T08:43:42.015Z,18.45
2024-05-09T08:46:35.745Z,17.83
2024-05-09T08:49:23.847Z,19.40
2024-05-09T08:52:17.862Z,18.95
2024-05-09T08:55:05.146Z,20.40
2024-05-09T08:57:59.696Z,16.67
2024-05-09T09:00:54.779Z,24.40
2024-05-09T09:03:49.861Z,18.38
2024-05-09T09:06:37.787Z,22.75
2024-05-09T09:09:31.713Z,26.97
2024-05-09T09:12:18.984Z,23.88
2024-05-09T09:15:12.849Z,18.80
2024-05-09T09:18:00.703Z,25.05
2024-05-09T09:20:54.783Z,24.45
2024-05-09T09:23:42.108Z,25.80
2024-05-09T09:26:35.723Z,23.58
2024-05-09T09:29:23.063Z,25.55
2024-05-09T09:32:32.950Z,23.65
2024-05-09T09:35:20.213Z,20.23
2024-05-09T09:38:13.729Z,23.70
2024-05-09T09:41:07.796Z,22.30
2024-05-09T09:44:02.710Z,20.85
2024-05-09T09:46:50.447Z,25.30
2024-05-09T09:49:44.743Z,23.37
2024-05-09T09:52:33.673Z,24.77
2024-05-09T09:58:22.888Z,26.23
2024-05-09T10:01:29.847Z,29.17
2024-05-09T10:04:24.796Z,22.65
2024-05-09T10:07:20.734Z,25.40
2024-05-09T10:10:10.985Z,26.77
2024-05-09T10:13:08.090Z,25.17
2024-05-09T10:16:05.778Z,21.20
2024-05-09T10:19:04.089Z,21.85
2024-05-09T10:21:51.466Z,23.67
2024-05-09T10:24:44.826Z,17.80
2024-05-09T10:27:32.290Z,22.90
2024-05-09T10:30:33.814Z,22.70
2024-05-09T10:33:23.402Z,27.48
2024-05-09T10:36:19.760Z,22.73
2024-05-09T10:39:07.087Z,26.67
2024-05-09T10:42:07.713Z,26.08
2024-05-09T10:44:58.182Z,21.77
2024-05-09T10:47:52.911Z,25.50
2024-05-09T10:50:40.559Z,26.80
2024-05-09T10:53:21.955Z,22.92
2024-05-09T10:56:19.097Z,33.67
2024-05-09T10:59:12.729Z,26.58
2024-05-09T11:02:00.502Z,27.05
2024-05-09T11:05:01.920Z,24.33
2024-05-09T11:07:49.313Z,29.02
2024-05-09T11:10:43.825Z,34.25
2024-05-09T11:13:31.425Z,27.33
2024-05-09T11:16:25.885Z,27.52
2024-05-09T11:19:14.456Z,26.80
2024-05-09T11:22:08.892Z,24.02
2024-05-09T11:24:56.231Z,23.67
2024-05-09T11:27:50.757Z,28.45
2024-05-09T11:30:44.744Z,26.48
2024-05-09T11:33:39.269Z,29.35
2024-05-09T11:36:33.822Z,25.20
2024-05-09T11:39:21.074Z,35.97
2024-05-09T11:42:14.762Z,24.77
2024-05-09T11:45:01.986Z,25.85
2024-05-09T11:47:55.998Z,29.67
2024-05-09T11:50:43.303Z,26.70
2024-05-09T11:53:43.740Z,31.25
2024-05-09T11:56:43.763Z,35.20
2024-05-09T11:59:37.729Z,33.42
2024-05-09T12:02:31.798Z,33.53
2024-05-09T12:05:26.099Z,27.58
2024-05-09T12:08:19.754Z,31.00
2024-05-09T12:11:14.131Z,39.33
2024-05-09T12:14:07.776Z,29.38
2024-05-09T12:17:01.896Z,28.55
2024-05-09T12:19:49.189Z,36.22
2024-05-09T12:22:42.792Z,31.63
2024-05-09T12:25:30.043Z,34.08
2024-05-09T12:28:23.837Z,37.25
2024-05-09T12:31:11.290Z,35.72
2024-05-09T12:34:04.918Z,35.25
2024-05-09T12:36:52.613Z,31.63
2024-05-09T12:39:46.762Z,35.75
2024-05-09T12:42:34.075Z,32.30
2024-05-09T12:45:27.749Z,30.05
2024-05-09T12:47:55.174Z,27.45
2024-05-09T12:50:49.184Z,34.63
2024-05-09T12:53:42.850Z,33.60
2024-05-09T12:56:42.757Z,27.42
2024-05-09T12:59:36.771Z,30.35
2024-05-09T13:02:30.893Z,25.60
2024-05-09T13:05:25.018Z,25.38
2024-05-09T13:08:18.713Z,31.50
2024-05-09T13:11:19.806Z,33.30
2024-05-09T13:14:07.151Z,29.45
2024-05-09T13:17:00.837Z,26.30
2024-05-09T13:19:48.295Z,27.52
2024-05-09T13:22:43.777Z,26.67
2024-05-09T13:25:31.120Z,34.35
2024-05-09T13:28:25.145Z,34.00
2024-05-09T13:31:12.623Z,29.95
2024-05-09T13:34:06.834Z,30.27
2024-05-09T13:37:00.830Z,25.17
2024-05-09T13:39:48.112Z,29.08
2024-05-09T13:42:41.844Z,25.23
2024-05-09T13:45:29.269Z,27.42
2024-05-09T13:48:23.031Z,27.40
2024-05-09T13:51:10.445Z,28.95
2024-05-09T13:54:03.817Z,24.48
2024-05-09T13:56:58.143Z,26.30
2024-05-09T13:59:51.815Z,32.63
2024-05-09T14:02:39.214Z,29.77
2024-05-09T14:05:33.234Z,31.42
2024-05-09T14:08:27.801Z,32.15
2024-05-09T14:11:21.924Z,39.05
2024-05-09T14:14:09.214Z,27.50
2024-05-09T14:17:02.847Z,30.65
2024-05-09T14:19:56.801Z,32.60
2024-05-09T14:22:50.815Z,33.03
2024-05-09T14:25:41.476Z,33.05
2024-05-09T14:28:36.851Z,27.70
2024-05-09T14:31:24.272Z,30.40
2024-05-09T14:34:18.254Z,28.73
2024-05-09T14:37:05.672Z,31.33
2024-05-09T14:40:00.016Z,28.08
2024-05-09T14:42:47.397Z,29.25
2024-05-09T14:45:46.956Z,28.70
2024-05-09T14:48:35.724Z,26.95
2024-05-09T14:54:24.043Z,22.17
2024-05-09T14:57:17.965Z,27.10
2024-05-09T15:00:20.782Z,26.15
2024-05-09T15:03:20.911Z,24.75
2024-05-09T15:06:09.505Z,19.83
2024-05-09T15:09:04.237Z,24.13
2024-05-09T15:11:51.724Z,27.30
2024-05-09T15:14:45.853Z,28.98
2024-05-09T15:17:33.200Z,28.00
2024-05-09T15:20:33.505Z,19.45
2024-05-09T15:23:23.994Z,18.05
2024-05-09T15:26:18.177Z,26.02
2024-05-09T15:29:05.476Z,17.70
2024-05-09T15:31:58.915Z,22.88
2024-05-09T15:34:46.416Z,25.95
2024-05-09T15:37:40.885Z,20.70
2024-05-09T15:40:36.012Z,17.80
2024-05-09T15:43:33.997Z,19.83
2024-05-09T15:46:28.039Z,20.75
2024-05-09T15:49:24.530Z,15.25
2024-05-09T15:52:13.155Z,20.55
2024-05-09T15:55:13.983Z,16.65
2024-05-09T15:58:04.895Z,12.95
2024-05-09T16:00:58.869Z,18.25
2024-05-09T16:03:46.755Z,13.77
2024-05-09T16:06:41.034Z,16.97
2024-05-09T16:09:28.749Z,13.20
2024-05-09T16:12:22.954Z,14.45
2024-05-09T16:15:10.259Z,16.13
2024-05-09T16:18:03.891Z,11.15
2024-05-09T16:20:57.844Z,16.20
2024-05-09T16:23:51.845Z,12.77
2024-05-09T16:26:39.153Z,16.23
2024-05-09T16:29:32.919Z,12.15
2024-05-09T16:32:20.381Z,13.05
2024-05-09T16:35:13.910Z,15.88
2024-05-09T16:38:01.231Z,17.27
2024-05-09T16:40:55.125Z,10.88
2024-05-09T16:43:42.603Z,14.98
2024-05-09T16:46:42.877Z,13.15
2024-05-09T16:49:30.432Z,11.68
2024-05-09T16:52:23.955Z,14.48
2024-05-09T16:55:19.191Z,11.07
2024-05-09T16:58:13.121Z,12.68
2024-05-09T17:01:27.968Z,16.50
2024-05-09T17:04:22.003Z,11.95
2024-05-09T17:07:16.077Z,16.30
2024-05-09T17:10:15.441Z,12.40
2024-05-09T17:13:09.676Z,15.27
2024-05-09T17:16:03.936Z,15.32
2024-05-09T17:18:57.907Z,14.30
2024-05-09T17:21:45.177Z,14.20
2024-05-09T17:24:38.921Z,12.63
2024-05-09T17:27:26.197Z,14.20
2024-05-09T17:30:28.625Z,16.30
2024-05-09T17:33:28.114Z,12.25
2024-05-09T17:36:15.614Z,14.05
2024-05-09T17:39:09.984Z,16.27
2024-05-09T17:41:57.230Z,14.23
2024-05-09T17:44:50.870Z,24.30
2024-05-09T17:47:44.859Z,20.63
2024-05-09T17:50:39.009Z,17.33
2024-05-09T17:53:26.805Z,15.57
2024-05-09T17:56:27.883Z,12.23
2024-05-09T17:59:21.868Z,15.68
2024-05-09T18:02:16.024Z,12.75
2024-05-09T18:05:03.809Z,15.70
2024-05-09T18:07:57.903Z,13.90
2024-05-09T18:10:54.798Z,16.33
2024-05-09T18:13:48.869Z,19.85
2024-05-09T18:16:43.029Z,19.88
2024-05-09T18:19:37.034Z,15.85
2024-05-09T18:22:24.532Z,21.40
2024-05-09T18:25:18.056Z,20.52
2024-05-09T18:28:05.597Z,15.70
2024-05-09T18:30:59.958Z,13.60
2024-05-09T18:33:47.485Z,14.30
2024-05-09T18:36:40.947Z,19.42
2024-05-09T18:39:34.948Z,18.45
2024-05-09T18:42:28.931Z,17.27
2024-05-09T18:45:16.235Z,17.85
2024-05-09T18:48:16.058Z,19.70
2024-05-09T18:51:03.448Z,17.40
2024-05-09T18:53:56.939Z,16.35
2024-05-09T18:56:51.019Z,23.70
2024-05-09T18:59:45.375Z,18.55
2024-05-09T19:02:32.887Z,15.65
2024-05-09T19:05:27.348Z,21.40
2024-05-09T19:08:15.514Z,15.48
2024-05-09T19:11:09.964Z,27.45
2024-05-09T19:14:03.990Z,19.67
2024-05-09T19:16:51.838Z,20.75
2024-05-09T19:19:45.946Z,18.08
2024-05-09T19:22:39.941Z,26.30
2024-05-09T19:25:27.665Z,20.85
2024-05-09T19:28:21.096Z,25.55
2024-05-09T19:31:08.593Z,26.13
2024-05-09T19:34:02.002Z,22.08
2024-05-09T19:36:49.648Z,21.02
2024-05-09T19:39:43.981Z,32.38
2024-05-09T19:42:31.388Z,25.75
2024-05-09T19:45:25.002Z,21.80
2024-05-09T19:48:19.236Z,27.05
2024-05-09T19:51:12.953Z,24.65
2024-05-09T19:54:00.361Z,29.13
2024-05-09T19:57:00.967Z,19.15
2024-05-09T19:59:48.468Z,29.98
2024-05-09T20:02:42.075Z,30.05
2024-05-09T20:05:29.843Z,25.88
2024-05-09T20:08:24.166Z,26.00
2024-05-09T20:11:11.934Z,29.63
2024-05-09T20:14:05.938Z,30.70
2024-05-09T20:16:53.365Z,22.92
2024-05-09T20:19:47.075Z,29.92
2024-05-09T20:22:34.562Z,29.55
2024-05-09T20:25:28.972Z,32.70
2024-05-09T20:28:16.326Z,27.17
2024-05-09T20:31:10.241Z,28.98
2024-05-09T20:33:57.619Z,29.25
2024-05-09T20:36:50.965Z,27.45
2024-05-09T20:39:52.024Z,35.78
2024-05-09T20:42:39.391Z,34.22
2024-05-09T20:45:33.021Z,25.65
2024-05-09T20:48:34.237Z,41.90
2024-05-09T20:51:29.285Z,25.48
2024-05-09T20:54:23.976Z,27.38
2024-05-09T20:57:17.983Z,30.27
2024-05-09T21:00:18.209Z,18.95
2024-05-09T21:03:07.216Z,31.35
2024-05-09T21:06:01.003Z,27.20
2024-05-09T21:08:48.369Z,28.10
2024-05-09T21:11:42.100Z,27.90
2024-05-09T21:14:29.370Z,21.10
2024-05-09T21:17:23.081Z,21.40
2024-05-09T21:20:17.026Z,25.58
2024-05-09T21:23:13.942Z,24.75
2024-05-09T21:26:01.293Z,29.65
2024-05-09T21:28:55.016Z,18.55
2024-05-09T21:31:42.358Z,26.20
2024-05-09T21:34:36.058Z,25.42
2024-05-09T21:37:23.592Z,25.15
2024-05-09T21:40:26.673Z,38.25
2024-05-09T21:43:26.990Z,32.95
2024-05-09T21:46:14.312Z,28.23
2024-05-09T21:49:14.029Z,29.02
2024-05-09T21:52:07.922Z,26.20
2024-05-09T21:55:09.081Z,33.67
2024-05-09T21:57:56.438Z,32.28
2024-05-09T22:00:50.116Z,31.50
2024-05-09T22:03:44.073Z,32.03
2024-05-09T22:06:31.665Z,39.08
2024-05-09T22:09:25.026Z,34.92
2024-05-09T22:12:12.483Z,37.30
2024-05-09T22:15:05.982Z,33.17
2024-05-09T22:17:53.759Z,30.83
2024-05-09T22:20:47.953Z,26.63
2024-05-09T22:23:44.931Z,41.03
2024-05-09T22:26:32.154Z,33.65
2024-05-09T22:29:25.995Z,33.53
2024-05-09T22:32:13.242Z,27.10
2024-05-09T22:35:07.064Z,31.98
2024-05-09T22:37:54.918Z,45.22
2024-05-09T22:40:50.075Z,37.17
2024-05-09T22:43:38.032Z,39.10
2024-05-09T22:46:32.098Z,33.67
2024-05-09T22:49:19.511Z,37.15
2024-05-09T22:52:20.048Z,37.63
2024-05-09T22:55:14.022Z,37.35
2024-05-09T22:58:14.068Z,35.40
2024-05-09T23:01:08.050Z,33.22
2024-05-09T23:03:55.544Z,40.17
2024-05-09T23:06:49.086Z,39.83
2024-05-09T23:09:36.455Z,34.13
2024-05-09T23:12:30.166Z,26.05
2024-05-09T23:15:17.558Z,29.98
2024-05-09T23:17:51.070Z,43.10
2024-05-09T23:20:40.021Z,27.60
2024-05-09T23:23:33.984Z,29.05
2024-05-09T23:26:21.231Z,36.33
2024-05-09T23:29:15.025Z,19.98
2024-05-09T23:32:02.245Z,26.38
2024-05-09T23:34:56.082Z,42.45
2024-05-09T23:37:43.596Z,29.20
2024-05-09T23:40:40.530Z,24.70
2024-05-09T23:43:29.750Z,23.35
2024-05-09T23:46:23.077Z,25.95
2024-05-09T23:49:10.448Z,26.70
2024-05-09T23:52:17.377Z,25.02
2024-05-09T23:55:25.045Z,29.75
2024-05-09T23:58:19.263Z,23.08
